sensor_id;sensor_type;location;lat;lon;timestamp;P1;durP1;ratioP1;P2;durP2;ratioP2
30337;SDS011;17143;51.888;5.408;2023-04-30T00:00:20;9.07;;;4.00;;
30337;SDS011;17143;51.888;5.408;2023-04-30T00:15:22;7.40;;;3.40;;
30337;SDS011;17143;51.888;5.408;2023-04-30T00:30:24;8.03;;;3.90;;
30337;SDS011;17143;51.888;5.408;2023-04-30T00:45:26;5.20;;;3.33;;
30337;SDS011;17143;51.888;5.408;2023-04-30T01:00:28;4.87;;;3.17;;
30337;SDS011;17143;51.888;5.408;2023-04-30T01:15:31;5.90;;;3.47;;
30337;SDS011;17143;51.888;5.408;2023-04-30T01:30:39;5.87;;;3.50;;
30337;SDS011;17143;51.888;5.408;2023-04-30T01:45:46;7.57;;;3.43;;
30337;SDS011;17143;51.888;5.408;2023-04-30T02:00:58;5.67;;;3.30;;
30337;SDS011;17143;51.888;5.408;2023-04-30T02:16:00;6.10;;;3.57;;
30337;SDS011;17143;51.888;5.408;2023-04-30T02:31:02;7.20;;;3.30;;
30337;SDS011;17143;51.888;5.408;2023-04-30T02:46:05;4.00;;;3.00;;
30337;SDS011;17143;51.888;5.408;2023-04-30T03:01:07;4.43;;;2.90;;
30337;SDS011;17143;51.888;5.408;2023-04-30T03:16:09;4.23;;;2.80;;
30337;SDS011;17143;51.888;5.408;2023-04-30T03:31:11;3.50;;;2.50;;
30337;SDS011;17143;51.888;5.408;2023-04-30T03:46:13;5.40;;;2.63;;
30337;SDS011;17143;51.888;5.408;2023-04-30T04:01:15;3.77;;;2.57;;
30337;SDS011;17143;51.888;5.408;2023-04-30T04:16:17;5.03;;;2.53;;
30337;SDS011;17143;51.888;5.408;2023-04-30T04:31:20;4.83;;;3.00;;
30337;SDS011;17143;51.888;5.408;2023-04-30T04:46:23;5.90;;;3.00;;
30337;SDS011;17143;51.888;5.408;2023-04-30T05:01:26;6.20;;;2.77;;
30337;SDS011;17143;51.888;5.408;2023-04-30T05:16:29;6.37;;;3.33;;
30337;SDS011;17143;51.888;5.408;2023-04-30T05:31:31;5.13;;;3.27;;
30337;SDS011;17143;51.888;5.408;2023-04-30T05:46:33;4.13;;;2.37;;
30337;SDS011;17143;51.888;5.408;2023-04-30T06:01:35;5.30;;;2.90;;
30337;SDS011;17143;51.888;5.408;2023-04-30T06:16:37;5.07;;;2.93;;
30337;SDS011;17143;51.888;5.408;2023-04-30T06:31:39;4.00;;;3.20;;
30337;SDS011;17143;51.888;5.408;2023-04-30T06:46:41;5.17;;;3.40;;
30337;SDS011;17143;51.888;5.408;2023-04-30T07:01:43;5.17;;;3.20;;
30337;SDS011;17143;51.888;5.408;2023-04-30T07:16:45;4.37;;;3.17;;
30337;SDS011;17143;51.888;5.408;2023-04-30T07:31:50;3.87;;;2.97;;
30337;SDS011;17143;51.888;5.408;2023-04-30T07:46:52;5.00;;;3.50;;
30337;SDS011;17143;51.888;5.408;2023-04-30T08:01:54;5.03;;;2.93;;
30337;SDS011;17143;51.888;5.408;2023-04-30T08:16:56;4.47;;;3.27;;
30337;SDS011;17143;51.888;5.408;2023-04-30T08:31:58;6.07;;;3.50;;
30337;SDS011;17143;51.888;5.408;2023-04-30T08:47:03;8.67;;;4.00;;
30337;SDS011;17143;51.888;5.408;2023-04-30T09:02:07;4.37;;;3.27;;
30337;SDS011;17143;51.888;5.408;2023-04-30T09:17:09;4.33;;;3.10;;
30337;SDS011;17143;51.888;5.408;2023-04-30T09:32:22;3.57;;;2.60;;
30337;SDS011;17143;51.888;5.408;2023-04-30T09:47:28;3.70;;;2.83;;
30337;SDS011;17143;51.888;5.408;2023-04-30T10:02:30;2.40;;;2.13;;
30337;SDS011;17143;51.888;5.408;2023-04-30T10:17:33;2.03;;;1.73;;
30337;SDS011;17143;51.888;5.408;2023-04-30T10:32:40;4.60;;;2.43;;
30337;SDS011;17143;51.888;5.408;2023-04-30T10:47:49;1.70;;;1.60;;
30337;SDS011;17143;51.888;5.408;2023-04-30T11:03:01;3.00;;;2.57;;
30337;SDS011;17143;51.888;5.408;2023-04-30T11:18:05;2.57;;;1.70;;
30337;SDS011;17143;51.888;5.408;2023-04-30T11:33:08;2.50;;;1.93;;
30337;SDS011;17143;51.888;5.408;2023-04-30T11:48:11;2.77;;;2.00;;
30337;SDS011;17143;51.888;5.408;2023-04-30T12:03:14;2.30;;;2.10;;
30337;SDS011;17143;51.888;5.408;2023-04-30T12:18:16;2.70;;;1.60;;
30337;SDS011;17143;51.888;5.408;2023-04-30T12:33:18;5.70;;;2.30;;
30337;SDS011;17143;51.888;5.408;2023-04-30T12:48:21;2.20;;;1.70;;
30337;SDS011;17143;51.888;5.408;2023-04-30T13:03:24;2.07;;;1.83;;
30337;SDS011;17143;51.888;5.408;2023-04-30T13:18:26;1.60;;;1.50;;
30337;SDS011;17143;51.888;5.408;2023-04-30T13:33:28;2.60;;;1.47;;
30337;SDS011;17143;51.888;5.408;2023-04-30T13:48:30;2.93;;;1.50;;
30337;SDS011;17143;51.888;5.408;2023-04-30T14:03:32;3.73;;;2.03;;
30337;SDS011;17143;51.888;5.408;2023-04-30T14:18:34;1.13;;;0.90;;
30337;SDS011;17143;51.888;5.408;2023-04-30T14:33:36;1.20;;;1.10;;
30337;SDS011;17143;51.888;5.408;2023-04-30T14:48:38;0.70;;;0.63;;
30337;SDS011;17143;51.888;5.408;2023-04-30T15:03:40;0.57;;;0.57;;
30337;SDS011;17143;51.888;5.408;2023-04-30T15:18:42;0.80;;;0.50;;
30337;SDS011;17143;51.888;5.408;2023-04-30T15:33:44;3.93;;;2.53;;
30337;SDS011;17143;51.888;5.408;2023-04-30T15:48:46;0.70;;;0.60;;
30337;SDS011;17143;51.888;5.408;2023-04-30T16:03:48;1.13;;;0.70;;
30337;SDS011;17143;51.888;5.408;2023-04-30T16:18:50;0.67;;;0.50;;
30337;SDS011;17143;51.888;5.408;2023-04-30T16:33:52;0.57;;;0.53;;
30337;SDS011;17143;51.888;5.408;2023-04-30T16:48:55;1.17;;;0.67;;
30337;SDS011;17143;51.888;5.408;2023-04-30T17:03:57;0.40;;;0.40;;
30337;SDS011;17143;51.888;5.408;2023-04-30T17:18:59;0.77;;;0.50;;
30337;SDS011;17143;51.888;5.408;2023-04-30T17:34:01;0.77;;;0.77;;
30337;SDS011;17143;51.888;5.408;2023-04-30T17:49:03;1.07;;;0.70;;
30337;SDS011;17143;51.888;5.408;2023-04-30T18:04:07;1.03;;;0.73;;
30337;SDS011;17143;51.888;5.408;2023-04-30T18:19:09;2.43;;;0.80;;
30337;SDS011;17143;51.888;5.408;2023-04-30T18:34:11;1.80;;;0.80;;
30337;SDS011;17143;51.888;5.408;2023-04-30T18:49:13;2.40;;;1.23;;
30337;SDS011;17143;51.888;5.408;2023-04-30T19:04:15;1.13;;;0.90;;
30337;SDS011;17143;51.888;5.408;2023-04-30T19:19:17;0.63;;;0.63;;
30337;SDS011;17143;51.888;5.408;2023-04-30T19:34:19;1.30;;;1.00;;
30337;SDS011;17143;51.888;5.408;2023-04-30T19:49:21;3.07;;;1.20;;
30337;SDS011;17143;51.888;5.408;2023-04-30T20:04:23;2.00;;;1.27;;
30337;SDS011;17143;51.888;5.408;2023-04-30T20:19:25;1.73;;;1.40;;
30337;SDS011;17143;51.888;5.408;2023-04-30T20:34:27;2.83;;;1.30;;
30337;SDS011;17143;51.888;5.408;2023-04-30T20:49:29;3.00;;;1.30;;
30337;SDS011;17143;51.888;5.408;2023-04-30T21:04:32;2.83;;;1.60;;
30337;SDS011;17143;51.888;5.408;2023-04-30T21:19:34;3.67;;;1.87;;
30337;SDS011;17143;51.888;5.408;2023-04-30T21:34:35;5.27;;;2.60;;
30337;SDS011;17143;51.888;5.408;2023-04-30T21:49:37;4.00;;;2.00;;
30337;SDS011;17143;51.888;5.408;2023-04-30T22:04:39;3.07;;;1.77;;
30337;SDS011;17143;51.888;5.408;2023-04-30T22:19:41;2.07;;;1.50;;
30337;SDS011;17143;51.888;5.408;2023-04-30T22:34:44;1.90;;;1.63;;
30337;SDS011;17143;51.888;5.408;2023-04-30T22:49:46;2.60;;;1.80;;
30337;SDS011;17143;51.888;5.408;2023-04-30T23:04:48;2.87;;;1.87;;
30337;SDS011;17143;51.888;5.408;2023-04-30T23:19:50;2.60;;;1.97;;
30337;SDS011;17143;51.888;5.408;2023-04-30T23:34:52;2.60;;;2.00;;
30337;SDS011;17143;51.888;5.408;2023-04-30T23:49:54;4.10;;;2.20;;
